INFORMACIÓN METAR y TAF
METAR FOR LEBL
ADDS - METARS form results

(0841 UTC 24 April 2019)
Data provider http://aviationweather.gov/metar/data/
 
METAR text: LEBL 240830Z 21012KT 130V230 9999 FEW030 SCT055 16/06 Q1007 NOSIG
Conditions at: LEBL (BARCELONA AIRPOR, ES) observed 0830 UTC 24 April 2019
Temperature: 16.0°C (61°F)
Dewpoint: 6.0°C (43°F) [RH = 51%]
Pressure (altimeter): 29.73 inches Hg (1007.0 mb)
Winds: from the SSW (210 degrees) at 14 MPH (12 knots; 6.2 m/s)
Visibility: 6 or more miles (10+ km)
Ceiling: at least 12,000 feet AGL
Clouds: few clouds at 3000 feet AGL
scattered clouds at 5500 feet AGL
Weather: no significant weather observed at this time

METAR text: LEBL 240800Z 22007KT 190V260 9999 FEW025 16/04 Q1006 NOSIG
Conditions at: LEBL (BARCELONA AIRPOR, ES) observed 0800 UTC 24 April 2019
Temperature: 16.0°C (61°F)
Dewpoint: 4.0°C (39°F) [RH = 45%]
Pressure (altimeter): 29.70 inches Hg (1006.0 mb)
Winds: from the SW (220 degrees) at 8 MPH (7 knots; 3.6 m/s)
Visibility: 6 or more miles (10+ km)
Ceiling: at least 12,000 feet AGL
Clouds: few clouds at 2500 feet AGL
Weather: no significant weather observed at this time

METAR text: LEBL 240747Z 27005KT 210V330 9999 FEW025 16/05 Q1006 NOSIG
Conditions at: LEBL (BARCELONA AIRPOR, ES) observed 0747 UTC 24 April 2019
Temperature: 16.0°C (61°F)
Dewpoint: 5.0°C (41°F) [RH = 48%]
Pressure (altimeter): 29.70 inches Hg (1006.0 mb)
Winds: from the W (270 degrees) at 6 MPH (5 knots; 2.6 m/s)
Visibility: 6 or more miles (10+ km)
Ceiling: at least 12,000 feet AGL
Clouds: few clouds at 2500 feet AGL
Weather: no significant weather observed at this time

Forecast for: AMD
Text: TAF AMD LEBL 240635Z 2406/2506 25006KT 9999 FEW015 BKN050 TX18/2412Z TN12/2406Z
Forecast period: 0600 to 0900 UTC 24 April 2019
Forecast type: FROM: standard forecast or significant change
Winds: from the WSW (250 degrees) at 7 MPH (6 knots; 3.1 m/s)
Visibility: 6 or more miles 10+ km)
Ceiling: 5000 feet AGL
Clouds: few clouds at 1500 feet AGL
broken clouds at 5000 feet AGL
Weather: no significant weather forecast for this period
Text: PROB40
Forecast period: 0600 to 0800 UTC 24 April 2019
Forecast type: TEMPORARY: The following changes expected for less than half the time period
Visibility: missing
Ceiling: at least 12,000 feet AGL
Clouds: few clouds at 2500 feet AGL
Weather: TSRA  (rain associated with thunderstorm(s))
Text: TEMPO 2406/2408 TSRA FEW025CB
Forecast period: 0900 UTC 24 April 2019 to 0600 UTC 25 April 2019
Forecast type: BECOMING: Conditions expected to become as follows by 1100 UTC 24 April 2019
Winds: from the SSW (200 degrees) at 17 MPH (15 knots; 7.7 m/s)
Visibility: 6 or more miles 10+ km)
Ceiling: 5000 feet AGL
Clouds: few clouds at 1500 feet AGL
broken clouds at 5000 feet AGL
Weather: no significant weather forecast for this period

 MAPA DE AEROPUERTO

 INFORMACIÓN DE PISTA
Pista 02 Longitud 8333 ft Ancho 148 ft
Elevación 7 ft Umbral desplazado 131 ft Rumbo de pista 19
Pista 20 Longitud 8333 ft Ancho 148 ft
Elevación 12 ft Umbral desplazado 0 ft Rumbo de pista 199
Pista 07L Longitud 11654 ft Ancho 148 ft
Elevación 8 ft Umbral desplazado 295 ft Rumbo de pista 66
Pista 25R Longitud 11654 ft Ancho 148 ft
Elevación 10 ft Umbral desplazado 0 ft Rumbo de pista 246
Pista 07R Longitud 8727 ft Ancho 197 ft
Elevación 8 ft Umbral desplazado 0 ft Rumbo de pista 66
Pista 25L Longitud 8727 ft Ancho 197 ft
Elevación 8 ft Umbral desplazado 0 ft Rumbo de pista 246

 FRECUANCIAS DEL AEROPUERTO
Tipo APP Nombre APP Frecuencia 119.1 MHZ
Tipo ATIS Nombre ATIS Frecuencia 118.65 MHZ
Tipo CLD Nombre CLNC DEL Frecuencia 121.8 MHZ
Tipo GND Nombre GND Frecuencia 121.65 MHZ
Tipo TWR Nombre TWR Frecuencia 118.1 MHZ

 RADIO AYUDAS DEL AEROPUERTO
Tipo VOR-DME Nombre Barcelona Frecuencia 116700 KHZ
Tipo VOR-DME Nombre El Prat Frecuencia 114300 KHZ
Tipo VOR-DME Nombre Sabadell Frecuencia 112000 KHZ
Tipo NDB Nombre Villanueva Frecuencia 380 KHZ



Powered by Virtual Airlines Manager [v2.6.2]